sensor_id;sensor_type;location;lat;lon;timestamp;P1;durP1;ratioP1;P2;durP2;ratioP2
12826;SDS011;66927;48.812;9.118;2023-08-20T00:01:31;7.75;;;6.22;;
12826;SDS011;66927;48.812;9.118;2023-08-20T00:03:57;6.13;;;5.63;;
12826;SDS011;66927;48.812;9.118;2023-08-20T00:06:23;8.27;;;6.15;;
12826;SDS011;66927;48.812;9.118;2023-08-20T00:08:49;7.00;;;6.18;;
12826;SDS011;66927;48.812;9.118;2023-08-20T00:11:15;11.68;;;6.72;;
12826;SDS011;66927;48.812;9.118;2023-08-20T00:13:41;6.70;;;6.10;;
12826;SDS011;66927;48.812;9.118;2023-08-20T00:16:07;6.35;;;5.78;;
12826;SDS011;66927;48.812;9.118;2023-08-20T00:18:34;6.50;;;5.75;;
12826;SDS011;66927;48.812;9.118;2023-08-20T00:21:00;5.88;;;5.38;;
12826;SDS011;66927;48.812;9.118;2023-08-20T00:23:27;6.15;;;5.55;;
12826;SDS011;66927;48.812;9.118;2023-08-20T00:25:53;6.95;;;6.20;;
12826;SDS011;66927;48.812;9.118;2023-08-20T00:28:20;7.25;;;6.10;;
12826;SDS011;66927;48.812;9.118;2023-08-20T00:30:46;7.05;;;6.20;;
12826;SDS011;66927;48.812;9.118;2023-08-20T00:33:14;6.78;;;6.05;;
12826;SDS011;66927;48.812;9.118;2023-08-20T00:35:40;6.78;;;6.03;;
12826;SDS011;66927;48.812;9.118;2023-08-20T00:38:06;8.00;;;6.45;;
12826;SDS011;66927;48.812;9.118;2023-08-20T00:40:32;6.75;;;6.25;;
12826;SDS011;66927;48.812;9.118;2023-08-20T00:42:57;6.35;;;5.85;;
12826;SDS011;66927;48.812;9.118;2023-08-20T00:45:23;6.68;;;5.63;;
12826;SDS011;66927;48.812;9.118;2023-08-20T00:47:50;6.25;;;5.63;;
12826;SDS011;66927;48.812;9.118;2023-08-20T00:50:16;6.57;;;5.93;;
12826;SDS011;66927;48.812;9.118;2023-08-20T00:52:43;8.52;;;6.07;;
12826;SDS011;66927;48.812;9.118;2023-08-20T00:55:10;6.82;;;6.15;;
12826;SDS011;66927;48.812;9.118;2023-08-20T00:57:36;7.05;;;6.35;;
12826;SDS011;66927;48.812;9.118;2023-08-20T01:00:04;7.40;;;6.03;;
12826;SDS011;66927;48.812;9.118;2023-08-20T01:02:36;6.78;;;6.07;;
12826;SDS011;66927;48.812;9.118;2023-08-20T01:05:03;7.07;;;6.40;;
12826;SDS011;66927;48.812;9.118;2023-08-20T01:10:10;6.82;;;6.18;;
12826;SDS011;66927;48.812;9.118;2023-08-20T01:12:39;7.85;;;6.57;;
12826;SDS011;66927;48.812;9.118;2023-08-20T01:15:06;6.45;;;5.95;;
12826;SDS011;66927;48.812;9.118;2023-08-20T01:17:42;6.88;;;6.18;;
12826;SDS011;66927;48.812;9.118;2023-08-20T01:20:09;9.85;;;6.38;;
12826;SDS011;66927;48.812;9.118;2023-08-20T01:28:51;6.72;;;6.13;;
12826;SDS011;66927;48.812;9.118;2023-08-20T01:31:18;6.60;;;6.00;;
12826;SDS011;66927;48.812;9.118;2023-08-20T01:33:44;8.00;;;6.80;;
12826;SDS011;66927;48.812;9.118;2023-08-20T01:36:10;7.97;;;6.25;;
12826;SDS011;66927;48.812;9.118;2023-08-20T01:38:36;6.72;;;6.03;;
12826;SDS011;66927;48.812;9.118;2023-08-20T01:41:03;7.30;;;6.60;;
12826;SDS011;66927;48.812;9.118;2023-08-20T01:43:29;7.03;;;6.30;;
12826;SDS011;66927;48.812;9.118;2023-08-20T01:45:54;6.70;;;5.90;;
12826;SDS011;66927;48.812;9.118;2023-08-20T01:48:20;8.65;;;7.00;;
12826;SDS011;66927;48.812;9.118;2023-08-20T01:50:45;7.43;;;5.97;;
12826;SDS011;66927;48.812;9.118;2023-08-20T01:53:11;7.90;;;6.55;;
12826;SDS011;66927;48.812;9.118;2023-08-20T01:55:37;6.57;;;5.90;;
12826;SDS011;66927;48.812;9.118;2023-08-20T01:58:03;6.50;;;6.00;;
12826;SDS011;66927;48.812;9.118;2023-08-20T02:00:29;7.55;;;6.68;;
12826;SDS011;66927;48.812;9.118;2023-08-20T02:02:55;8.43;;;6.35;;
12826;SDS011;66927;48.812;9.118;2023-08-20T02:05:21;7.30;;;6.60;;
12826;SDS011;66927;48.812;9.118;2023-08-20T02:07:47;7.75;;;7.05;;
12826;SDS011;66927;48.812;9.118;2023-08-20T02:10:12;6.70;;;6.10;;
12826;SDS011;66927;48.812;9.118;2023-08-20T02:12:39;6.97;;;5.82;;
12826;SDS011;66927;48.812;9.118;2023-08-20T02:15:05;9.50;;;6.65;;
12826;SDS011;66927;48.812;9.118;2023-08-20T02:17:32;6.68;;;6.07;;
12826;SDS011;66927;48.812;9.118;2023-08-20T02:19:58;7.07;;;6.03;;
12826;SDS011;66927;48.812;9.118;2023-08-20T02:22:23;7.03;;;6.40;;
12826;SDS011;66927;48.812;9.118;2023-08-20T02:24:49;11.18;;;6.75;;
12826;SDS011;66927;48.812;9.118;2023-08-20T02:27:14;6.70;;;6.10;;
12826;SDS011;66927;48.812;9.118;2023-08-20T02:29:40;7.65;;;6.93;;
12826;SDS011;66927;48.812;9.118;2023-08-20T02:32:06;8.82;;;7.00;;
12826;SDS011;66927;48.812;9.118;2023-08-20T02:34:31;6.72;;;6.13;;
12826;SDS011;66927;48.812;9.118;2023-08-20T02:36:57;10.23;;;6.75;;
12826;SDS011;66927;48.812;9.118;2023-08-20T02:39:22;7.03;;;6.32;;
12826;SDS011;66927;48.812;9.118;2023-08-20T02:41:49;8.43;;;6.60;;
12826;SDS011;66927;48.812;9.118;2023-08-20T02:44:15;7.00;;;6.40;;
12826;SDS011;66927;48.812;9.118;2023-08-20T02:46:41;7.57;;;6.30;;
12826;SDS011;66927;48.812;9.118;2023-08-20T02:49:09;6.60;;;6.00;;
12826;SDS011;66927;48.812;9.118;2023-08-20T02:51:35;7.40;;;6.65;;
12826;SDS011;66927;48.812;9.118;2023-08-20T02:54:01;10.55;;;6.40;;
12826;SDS011;66927;48.812;9.118;2023-08-20T02:56:26;6.63;;;5.95;;
12826;SDS011;66927;48.812;9.118;2023-08-20T02:58:52;7.47;;;6.78;;
12826;SDS011;66927;48.812;9.118;2023-08-20T03:01:18;6.55;;;6.03;;
12826;SDS011;66927;48.812;9.118;2023-08-20T03:03:45;7.07;;;6.47;;
12826;SDS011;66927;48.812;9.118;2023-08-20T03:06:11;9.65;;;7.05;;
12826;SDS011;66927;48.812;9.118;2023-08-20T03:08:37;7.05;;;6.35;;
12826;SDS011;66927;48.812;9.118;2023-08-20T03:11:02;6.65;;;6.03;;
12826;SDS011;66927;48.812;9.118;2023-08-20T03:13:28;7.40;;;6.60;;
12826;SDS011;66927;48.812;9.118;2023-08-20T03:15:54;7.13;;;6.53;;
12826;SDS011;66927;48.812;9.118;2023-08-20T03:18:19;7.43;;;6.57;;
12826;SDS011;66927;48.812;9.118;2023-08-20T03:20:45;7.85;;;6.65;;
12826;SDS011;66927;48.812;9.118;2023-08-20T03:23:10;6.70;;;6.20;;
12826;SDS011;66927;48.812;9.118;2023-08-20T03:25:36;7.80;;;5.85;;
12826;SDS011;66927;48.812;9.118;2023-08-20T03:28:03;6.88;;;6.25;;
12826;SDS011;66927;48.812;9.118;2023-08-20T03:30:28;6.70;;;6.05;;
12826;SDS011;66927;48.812;9.118;2023-08-20T03:32:54;7.15;;;6.47;;
12826;SDS011;66927;48.812;9.118;2023-08-20T03:35:20;9.88;;;6.30;;
12826;SDS011;66927;48.812;9.118;2023-08-20T03:37:45;6.82;;;6.10;;
12826;SDS011;66927;48.812;9.118;2023-08-20T03:40:11;9.45;;;6.32;;
12826;SDS011;66927;48.812;9.118;2023-08-20T03:42:38;11.45;;;6.97;;
12826;SDS011;66927;48.812;9.118;2023-08-20T03:45:04;10.20;;;6.88;;
12826;SDS011;66927;48.812;9.118;2023-08-20T03:47:30;7.40;;;6.50;;
12826;SDS011;66927;48.812;9.118;2023-08-20T03:49:55;6.50;;;6.00;;
12826;SDS011;66927;48.812;9.118;2023-08-20T03:52:21;8.65;;;6.30;;
12826;SDS011;66927;48.812;9.118;2023-08-20T03:54:47;6.90;;;6.30;;
12826;SDS011;66927;48.812;9.118;2023-08-20T03:57:12;7.93;;;6.40;;
12826;SDS011;66927;48.812;9.118;2023-08-20T03:59:38;7.10;;;6.50;;
12826;SDS011;66927;48.812;9.118;2023-08-20T04:02:03;7.00;;;6.30;;
12826;SDS011;66927;48.812;9.118;2023-08-20T04:04:29;7.40;;;6.70;;
12826;SDS011;66927;48.812;9.118;2023-08-20T04:06:55;6.70;;;6.10;;
12826;SDS011;66927;48.812;9.118;2023-08-20T04:09:20;12.05;;;6.93;;
12826;SDS011;66927;48.812;9.118;2023-08-20T04:11:46;6.80;;;6.30;;
12826;SDS011;66927;48.812;9.118;2023-08-20T04:14:12;9.48;;;7.28;;
12826;SDS011;66927;48.812;9.118;2023-08-20T04:16:37;9.15;;;7.30;;
12826;SDS011;66927;48.812;9.118;2023-08-20T04:19:03;8.77;;;7.55;;
12826;SDS011;66927;48.812;9.118;2023-08-20T04:21:29;7.13;;;6.38;;
12826;SDS011;66927;48.812;9.118;2023-08-20T04:23:54;9.02;;;6.15;;
12826;SDS011;66927;48.812;9.118;2023-08-20T04:26:20;7.07;;;6.47;;
12826;SDS011;66927;48.812;9.118;2023-08-20T04:28:45;7.90;;;7.25;;
12826;SDS011;66927;48.812;9.118;2023-08-20T04:31:11;13.80;;;12.07;;
12826;SDS011;66927;48.812;9.118;2023-08-20T04:33:37;22.80;;;20.73;;
12826;SDS011;66927;48.812;9.118;2023-08-20T04:36:03;9.80;;;8.95;;
12826;SDS011;66927;48.812;9.118;2023-08-20T04:38:29;7.88;;;7.18;;
12826;SDS011;66927;48.812;9.118;2023-08-20T04:40:55;8.02;;;7.32;;
12826;SDS011;66927;48.812;9.118;2023-08-20T04:43:20;7.55;;;6.75;;
12826;SDS011;66927;48.812;9.118;2023-08-20T04:45:46;7.40;;;6.78;;
12826;SDS011;66927;48.812;9.118;2023-08-20T04:48:11;6.97;;;6.32;;
12826;SDS011;66927;48.812;9.118;2023-08-20T04:50:37;7.53;;;6.75;;
12826;SDS011;66927;48.812;9.118;2023-08-20T04:53:03;8.63;;;6.50;;
12826;SDS011;66927;48.812;9.118;2023-08-20T04:55:29;6.80;;;6.20;;
12826;SDS011;66927;48.812;9.118;2023-08-20T04:57:55;7.47;;;6.25;;
12826;SDS011;66927;48.812;9.118;2023-08-20T05:00:21;13.10;;;6.90;;
12826;SDS011;66927;48.812;9.118;2023-08-20T05:02:47;6.63;;;6.10;;
12826;SDS011;66927;48.812;9.118;2023-08-20T05:05:12;7.63;;;6.80;;
12826;SDS011;66927;48.812;9.118;2023-08-20T05:07:38;7.97;;;6.65;;
12826;SDS011;66927;48.812;9.118;2023-08-20T05:10:04;7.05;;;6.35;;
12826;SDS011;66927;48.812;9.118;2023-08-20T05:12:30;7.80;;;6.68;;
12826;SDS011;66927;48.812;9.118;2023-08-20T05:14:55;8.00;;;7.22;;
12826;SDS011;66927;48.812;9.118;2023-08-20T05:17:21;9.77;;;6.05;;
12826;SDS011;66927;48.812;9.118;2023-08-20T05:19:47;7.93;;;6.90;;
12826;SDS011;66927;48.812;9.118;2023-08-20T05:22:12;8.38;;;6.53;;
12826;SDS011;66927;48.812;9.118;2023-08-20T05:24:38;8.40;;;6.85;;
12826;SDS011;66927;48.812;9.118;2023-08-20T05:27:05;8.65;;;7.80;;
12826;SDS011;66927;48.812;9.118;2023-08-20T05:29:34;7.53;;;6.82;;
12826;SDS011;66927;48.812;9.118;2023-08-20T05:32:00;6.80;;;6.20;;
12826;SDS011;66927;48.812;9.118;2023-08-20T05:34:26;7.28;;;6.68;;
12826;SDS011;66927;48.812;9.118;2023-08-20T05:36:51;7.32;;;6.72;;
12826;SDS011;66927;48.812;9.118;2023-08-20T05:39:17;9.30;;;7.10;;
12826;SDS011;66927;48.812;9.118;2023-08-20T05:41:42;7.80;;;6.68;;
12826;SDS011;66927;48.812;9.118;2023-08-20T05:44:09;7.30;;;6.80;;
12826;SDS011;66927;48.812;9.118;2023-08-20T05:46:35;7.60;;;6.93;;
12826;SDS011;66927;48.812;9.118;2023-08-20T05:49:01;7.45;;;6.75;;
12826;SDS011;66927;48.812;9.118;2023-08-20T05:51:26;7.38;;;6.68;;
12826;SDS011;66927;48.812;9.118;2023-08-20T05:53:52;7.35;;;6.75;;
12826;SDS011;66927;48.812;9.118;2023-08-20T05:56:18;7.53;;;6.82;;
12826;SDS011;66927;48.812;9.118;2023-08-20T05:58:43;9.57;;;7.25;;
12826;SDS011;66927;48.812;9.118;2023-08-20T06:01:09;8.23;;;7.47;;
12826;SDS011;66927;48.812;9.118;2023-08-20T06:03:34;7.55;;;6.93;;
12826;SDS011;66927;48.812;9.118;2023-08-20T06:06:00;7.60;;;7.00;;
12826;SDS011;66927;48.812;9.118;2023-08-20T06:08:26;7.45;;;6.75;;
12826;SDS011;66927;48.812;9.118;2023-08-20T06:10:51;7.20;;;6.65;;
12826;SDS011;66927;48.812;9.118;2023-08-20T06:13:17;7.85;;;7.07;;
12826;SDS011;66927;48.812;9.118;2023-08-20T06:15:43;8.63;;;6.97;;
12826;SDS011;66927;48.812;9.118;2023-08-20T06:18:08;8.13;;;6.40;;
12826;SDS011;66927;48.812;9.118;2023-08-20T06:20:34;7.97;;;6.85;;
12826;SDS011;66927;48.812;9.118;2023-08-20T06:23:00;10.38;;;7.50;;
12826;SDS011;66927;48.812;9.118;2023-08-20T06:25:26;8.63;;;7.80;;
12826;SDS011;66927;48.812;9.118;2023-08-20T06:27:51;8.68;;;7.88;;
12826;SDS011;66927;48.812;9.118;2023-08-20T06:30:17;10.38;;;8.00;;
12826;SDS011;66927;48.812;9.118;2023-08-20T06:32:44;8.63;;;7.93;;
12826;SDS011;66927;48.812;9.118;2023-08-20T06:35:10;7.97;;;7.18;;
12826;SDS011;66927;48.812;9.118;2023-08-20T06:37:36;9.13;;;8.23;;
12826;SDS011;66927;48.812;9.118;2023-08-20T06:40:04;8.32;;;7.65;;
12826;SDS011;66927;48.812;9.118;2023-08-20T06:42:30;8.55;;;7.78;;
12826;SDS011;66927;48.812;9.118;2023-08-20T06:44:56;9.10;;;7.07;;
12826;SDS011;66927;48.812;9.118;2023-08-20T06:47:21;8.23;;;7.53;;
12826;SDS011;66927;48.812;9.118;2023-08-20T06:49:47;9.55;;;8.70;;
12826;SDS011;66927;48.812;9.118;2023-08-20T06:52:16;10.38;;;9.35;;
12826;SDS011;66927;48.812;9.118;2023-08-20T06:54:44;8.93;;;8.13;;
12826;SDS011;66927;48.812;9.118;2023-08-20T06:57:09;9.65;;;8.25;;
12826;SDS011;66927;48.812;9.118;2023-08-20T06:59:35;10.05;;;9.07;;
12826;SDS011;66927;48.812;9.118;2023-08-20T07:02:01;9.25;;;8.43;;
12826;SDS011;66927;48.812;9.118;2023-08-20T07:04:28;10.68;;;9.68;;
12826;SDS011;66927;48.812;9.118;2023-08-20T07:06:54;9.88;;;8.63;;
12826;SDS011;66927;48.812;9.118;2023-08-20T07:09:19;9.60;;;8.50;;
12826;SDS011;66927;48.812;9.118;2023-08-20T07:11:45;9.10;;;8.30;;
12826;SDS011;66927;48.812;9.118;2023-08-20T07:14:10;10.27;;;9.27;;
12826;SDS011;66927;48.812;9.118;2023-08-20T07:16:36;9.88;;;8.35;;
12826;SDS011;66927;48.812;9.118;2023-08-20T07:19:02;9.88;;;8.80;;
12826;SDS011;66927;48.812;9.118;2023-08-20T07:21:27;12.93;;;10.95;;
12826;SDS011;66927;48.812;9.118;2023-08-20T07:23:53;16.08;;;14.57;;
12826;SDS011;66927;48.812;9.118;2023-08-20T07:26:19;12.95;;;11.68;;
12826;SDS011;66927;48.812;9.118;2023-08-20T07:28:44;15.73;;;14.32;;
12826;SDS011;66927;48.812;9.118;2023-08-20T07:31:25;10.18;;;9.27;;
12826;SDS011;66927;48.812;9.118;2023-08-20T07:33:53;10.32;;;9.38;;
12826;SDS011;66927;48.812;9.118;2023-08-20T07:36:20;16.40;;;11.07;;
12826;SDS011;66927;48.812;9.118;2023-08-20T07:38:53;11.88;;;8.48;;
12826;SDS011;66927;48.812;9.118;2023-08-20T07:41:19;10.88;;;8.75;;
12826;SDS011;66927;48.812;9.118;2023-08-20T07:43:45;9.10;;;8.25;;
12826;SDS011;66927;48.812;9.118;2023-08-20T07:46:12;8.40;;;7.60;;
12826;SDS011;66927;48.812;9.118;2023-08-20T07:48:38;8.38;;;7.68;;
12826;SDS011;66927;48.812;9.118;2023-08-20T07:51:04;8.38;;;7.53;;
12826;SDS011;66927;48.812;9.118;2023-08-20T07:53:30;9.48;;;8.48;;
12826;SDS011;66927;48.812;9.118;2023-08-20T07:55:56;9.70;;;8.88;;
12826;SDS011;66927;48.812;9.118;2023-08-20T07:58:22;22.40;;;20.40;;
12826;SDS011;66927;48.812;9.118;2023-08-20T08:00:48;12.82;;;11.68;;
12826;SDS011;66927;48.812;9.118;2023-08-20T08:03:14;12.45;;;11.30;;
12826;SDS011;66927;48.812;9.118;2023-08-20T08:05:40;9.63;;;8.73;;
12826;SDS011;66927;48.812;9.118;2023-08-20T08:08:06;9.40;;;8.32;;
12826;SDS011;66927;48.812;9.118;2023-08-20T08:10:32;9.80;;;8.90;;
12826;SDS011;66927;48.812;9.118;2023-08-20T08:12:57;10.60;;;9.52;;
12826;SDS011;66927;48.812;9.118;2023-08-20T08:15:23;9.65;;;8.63;;
12826;SDS011;66927;48.812;9.118;2023-08-20T08:17:49;10.02;;;9.05;;
12826;SDS011;66927;48.812;9.118;2023-08-20T08:20:14;10.75;;;9.75;;
12826;SDS011;66927;48.812;9.118;2023-08-20T08:22:40;9.57;;;8.65;;
12826;SDS011;66927;48.812;9.118;2023-08-20T08:25:06;9.10;;;8.27;;
12826;SDS011;66927;48.812;9.118;2023-08-20T08:27:31;8.80;;;8.07;;
12826;SDS011;66927;48.812;9.118;2023-08-20T08:29:57;8.57;;;7.88;;
12826;SDS011;66927;48.812;9.118;2023-08-20T08:32:23;11.30;;;8.10;;
12826;SDS011;66927;48.812;9.118;2023-08-20T08:34:49;9.70;;;8.50;;
12826;SDS011;66927;48.812;9.118;2023-08-20T08:37:15;10.93;;;7.82;;
12826;SDS011;66927;48.812;9.118;2023-08-20T08:39:41;10.38;;;9.45;;
12826;SDS011;66927;48.812;9.118;2023-08-20T08:42:06;9.73;;;8.73;;
12826;SDS011;66927;48.812;9.118;2023-08-20T08:44:35;9.88;;;8.88;;
12826;SDS011;66927;48.812;9.118;2023-08-20T08:47:02;9.25;;;8.35;;
12826;SDS011;66927;48.812;9.118;2023-08-20T08:49:29;8.98;;;8.23;;
12826;SDS011;66927;48.812;9.118;2023-08-20T08:51:58;9.38;;;8.57;;
12826;SDS011;66927;48.812;9.118;2023-08-20T08:54:24;8.68;;;8.00;;
12826;SDS011;66927;48.812;9.118;2023-08-20T08:56:51;10.23;;;8.63;;
12826;SDS011;66927;48.812;9.118;2023-08-20T08:59:17;9.68;;;8.88;;
12826;SDS011;66927;48.812;9.118;2023-08-20T09:01:43;9.00;;;8.30;;
12826;SDS011;66927;48.812;9.118;2023-08-20T09:04:08;9.02;;;7.75;;
12826;SDS011;66927;48.812;9.118;2023-08-20T09:09:10;9.68;;;7.53;;
12826;SDS011;66927;48.812;9.118;2023-08-20T09:11:36;8.48;;;7.78;;
12826;SDS011;66927;48.812;9.118;2023-08-20T09:14:01;8.43;;;7.60;;
12826;SDS011;66927;48.812;9.118;2023-08-20T09:16:29;9.02;;;8.10;;
12826;SDS011;66927;48.812;9.118;2023-08-20T09:18:57;8.45;;;7.75;;
12826;SDS011;66927;48.812;9.118;2023-08-20T09:21:28;8.88;;;7.25;;
12826;SDS011;66927;48.812;9.118;2023-08-20T09:23:54;10.52;;;8.00;;
12826;SDS011;66927;48.812;9.118;2023-08-20T09:26:21;7.60;;;6.95;;
12826;SDS011;66927;48.812;9.118;2023-08-20T09:28:46;10.05;;;7.20;;
12826;SDS011;66927;48.812;9.118;2023-08-20T09:31:12;8.13;;;7.43;;
12826;SDS011;66927;48.812;9.118;2023-08-20T09:33:51;9.23;;;8.32;;
12826;SDS011;66927;48.812;9.118;2023-08-20T09:36:18;8.30;;;7.70;;
12826;SDS011;66927;48.812;9.118;2023-08-20T09:38:44;7.55;;;6.88;;
12826;SDS011;66927;48.812;9.118;2023-08-20T09:41:09;8.32;;;7.63;;
12826;SDS011;66927;48.812;9.118;2023-08-20T09:43:38;8.07;;;7.28;;
12826;SDS011;66927;48.812;9.118;2023-08-20T09:46:04;8.55;;;7.47;;
12826;SDS011;66927;48.812;9.118;2023-08-20T09:48:34;8.40;;;7.22;;
12826;SDS011;66927;48.812;9.118;2023-08-20T09:51:09;8.57;;;7.57;;
12826;SDS011;66927;48.812;9.118;2023-08-20T09:53:51;7.47;;;6.78;;
12826;SDS011;66927;48.812;9.118;2023-08-20T09:56:27;7.63;;;6.90;;
12826;SDS011;66927;48.812;9.118;2023-08-20T09:58:55;11.38;;;7.80;;
12826;SDS011;66927;48.812;9.118;2023-08-20T10:01:24;8.30;;;6.53;;
12826;SDS011;66927;48.812;9.118;2023-08-20T10:03:51;8.00;;;7.10;;
12826;SDS011;66927;48.812;9.118;2023-08-20T10:06:17;7.97;;;7.05;;
12826;SDS011;66927;48.812;9.118;2023-08-20T10:08:45;7.32;;;6.75;;
12826;SDS011;66927;48.812;9.118;2023-08-20T10:11:12;8.20;;;7.10;;
12826;SDS011;66927;48.812;9.118;2023-08-20T10:13:38;8.30;;;7.53;;
12826;SDS011;66927;48.812;9.118;2023-08-20T10:16:04;9.45;;;6.78;;
12826;SDS011;66927;48.812;9.118;2023-08-20T10:18:30;11.13;;;6.82;;
12826;SDS011;66927;48.812;9.118;2023-08-20T10:20:57;8.45;;;6.60;;
12826;SDS011;66927;48.812;9.118;2023-08-20T10:23:24;7.50;;;6.93;;
12826;SDS011;66927;48.812;9.118;2023-08-20T10:25:50;8.43;;;7.63;;
12826;SDS011;66927;48.812;9.118;2023-08-20T10:28:22;14.20;;;12.80;;
12826;SDS011;66927;48.812;9.118;2023-08-20T10:33:48;14.00;;;11.10;;
12826;SDS011;66927;48.812;9.118;2023-08-20T10:36:19;9.02;;;7.70;;
12826;SDS011;66927;48.812;9.118;2023-08-20T10:38:54;7.55;;;6.95;;
12826;SDS011;66927;48.812;9.118;2023-08-20T10:41:25;8.90;;;6.80;;
12826;SDS011;66927;48.812;9.118;2023-08-20T10:43:57;8.95;;;6.55;;
12826;SDS011;66927;48.812;9.118;2023-08-20T10:46:24;8.27;;;6.63;;
12826;SDS011;66927;48.812;9.118;2023-08-20T10:49:02;7.47;;;6.75;;
12826;SDS011;66927;48.812;9.118;2023-08-20T10:51:29;9.43;;;6.47;;
12826;SDS011;66927;48.812;9.118;2023-08-20T10:56:45;7.70;;;6.90;;
12826;SDS011;66927;48.812;9.118;2023-08-20T11:01:45;8.98;;;7.18;;
12826;SDS011;66927;48.812;9.118;2023-08-20T11:04:13;8.52;;;7.30;;
12826;SDS011;66927;48.812;9.118;2023-08-20T11:06:42;10.38;;;9.40;;
12826;SDS011;66927;48.812;9.118;2023-08-20T11:09:09;12.82;;;11.80;;
12826;SDS011;66927;48.812;9.118;2023-08-20T11:11:37;8.85;;;7.70;;
12826;SDS011;66927;48.812;9.118;2023-08-20T11:14:05;7.60;;;7.00;;
12826;SDS011;66927;48.812;9.118;2023-08-20T11:16:34;6.93;;;6.32;;
12826;SDS011;66927;48.812;9.118;2023-08-20T11:19:01;9.30;;;7.50;;
12826;SDS011;66927;48.812;9.118;2023-08-20T11:21:30;7.82;;;7.05;;
12826;SDS011;66927;48.812;9.118;2023-08-20T11:23:57;12.10;;;6.90;;
12826;SDS011;66927;48.812;9.118;2023-08-20T11:26:22;8.88;;;6.85;;
12826;SDS011;66927;48.812;9.118;2023-08-20T11:28:48;8.30;;;6.55;;
12826;SDS011;66927;48.812;9.118;2023-08-20T11:31:14;7.50;;;6.28;;
12826;SDS011;66927;48.812;9.118;2023-08-20T11:33:40;6.15;;;5.57;;
12826;SDS011;66927;48.812;9.118;2023-08-20T11:36:05;6.05;;;5.55;;
12826;SDS011;66927;48.812;9.118;2023-08-20T11:38:31;7.95;;;6.05;;
12826;SDS011;66927;48.812;9.118;2023-08-20T11:40:57;7.18;;;5.68;;
12826;SDS011;66927;48.812;9.118;2023-08-20T11:43:29;6.03;;;5.53;;
12826;SDS011;66927;48.812;9.118;2023-08-20T11:45:55;6.72;;;6.10;;
12826;SDS011;66927;48.812;9.118;2023-08-20T11:48:21;6.65;;;6.05;;
12826;SDS011;66927;48.812;9.118;2023-08-20T11:50:47;7.63;;;6.78;;
12826;SDS011;66927;48.812;9.118;2023-08-20T11:53:14;6.93;;;6.10;;
12826;SDS011;66927;48.812;9.118;2023-08-20T11:55:40;8.68;;;7.88;;
12826;SDS011;66927;48.812;9.118;2023-08-20T11:58:09;6.07;;;5.57;;
12826;SDS011;66927;48.812;9.118;2023-08-20T12:00:39;6.10;;;5.10;;
12826;SDS011;66927;48.812;9.118;2023-08-20T12:03:05;6.20;;;5.57;;
12826;SDS011;66927;48.812;9.118;2023-08-20T12:05:31;7.82;;;6.22;;
12826;SDS011;66927;48.812;9.118;2023-08-20T12:10:23;5.97;;;5.45;;
12826;SDS011;66927;48.812;9.118;2023-08-20T12:12:50;7.10;;;5.85;;
12826;SDS011;66927;48.812;9.118;2023-08-20T12:15:16;6.25;;;5.65;;
12826;SDS011;66927;48.812;9.118;2023-08-20T12:17:43;6.32;;;5.80;;
12826;SDS011;66927;48.812;9.118;2023-08-20T12:20:19;10.10;;;5.20;;
12826;SDS011;66927;48.812;9.118;2023-08-20T12:22:45;7.30;;;5.60;;
12826;SDS011;66927;48.812;9.118;2023-08-20T12:25:11;5.82;;;5.22;;
12826;SDS011;66927;48.812;9.118;2023-08-20T12:27:37;6.32;;;5.72;;
12826;SDS011;66927;48.812;9.118;2023-08-20T12:30:02;12.90;;;11.70;;
12826;SDS011;66927;48.812;9.118;2023-08-20T12:32:28;8.50;;;6.28;;
12826;SDS011;66927;48.812;9.118;2023-08-20T12:34:54;7.15;;;6.25;;
12826;SDS011;66927;48.812;9.118;2023-08-20T12:37:20;5.68;;;5.18;;
12826;SDS011;66927;48.812;9.118;2023-08-20T12:39:46;5.82;;;5.32;;
12826;SDS011;66927;48.812;9.118;2023-08-20T12:42:11;6.05;;;5.40;;
12826;SDS011;66927;48.812;9.118;2023-08-20T12:44:37;9.75;;;6.32;;
12826;SDS011;66927;48.812;9.118;2023-08-20T12:47:02;5.15;;;4.75;;
12826;SDS011;66927;48.812;9.118;2023-08-20T12:49:28;8.20;;;5.72;;
12826;SDS011;66927;48.812;9.118;2023-08-20T12:51:54;6.95;;;5.70;;
12826;SDS011;66927;48.812;9.118;2023-08-20T12:54:19;7.72;;;5.55;;
12826;SDS011;66927;48.812;9.118;2023-08-20T12:56:45;6.13;;;5.25;;
12826;SDS011;66927;48.812;9.118;2023-08-20T12:59:11;6.35;;;5.75;;
12826;SDS011;66927;48.812;9.118;2023-08-20T13:01:37;6.47;;;5.85;;
12826;SDS011;66927;48.812;9.118;2023-08-20T13:04:03;5.93;;;5.30;;
12826;SDS011;66927;48.812;9.118;2023-08-20T13:06:31;7.38;;;6.10;;
12826;SDS011;66927;48.812;9.118;2023-08-20T13:08:57;5.60;;;5.10;;
12826;SDS011;66927;48.812;9.118;2023-08-20T13:11:23;9.95;;;5.90;;
12826;SDS011;66927;48.812;9.118;2023-08-20T13:13:51;6.65;;;5.25;;
12826;SDS011;66927;48.812;9.118;2023-08-20T13:16:18;6.40;;;5.80;;
12826;SDS011;66927;48.812;9.118;2023-08-20T13:18:44;5.38;;;4.97;;
12826;SDS011;66927;48.812;9.118;2023-08-20T13:21:10;7.05;;;5.28;;
12826;SDS011;66927;48.812;9.118;2023-08-20T13:23:36;6.00;;;5.40;;
12826;SDS011;66927;48.812;9.118;2023-08-20T13:26:02;6.32;;;4.78;;
12826;SDS011;66927;48.812;9.118;2023-08-20T13:28:29;5.93;;;5.43;;
12826;SDS011;66927;48.812;9.118;2023-08-20T13:30:55;6.57;;;5.97;;
12826;SDS011;66927;48.812;9.118;2023-08-20T13:33:20;5.80;;;5.30;;
12826;SDS011;66927;48.812;9.118;2023-08-20T13:35:46;5.63;;;5.13;;
12826;SDS011;66927;48.812;9.118;2023-08-20T13:38:14;6.20;;;5.60;;
12826;SDS011;66927;48.812;9.118;2023-08-20T13:40:40;9.32;;;5.90;;
12826;SDS011;66927;48.812;9.118;2023-08-20T13:43:06;6.00;;;5.40;;
12826;SDS011;66927;48.812;9.118;2023-08-20T13:45:32;5.32;;;4.82;;
12826;SDS011;66927;48.812;9.118;2023-08-20T13:48:00;6.78;;;5.68;;
12826;SDS011;66927;48.812;9.118;2023-08-20T13:50:26;9.25;;;6.70;;
12826;SDS011;66927;48.812;9.118;2023-08-20T13:52:52;5.82;;;5.22;;
12826;SDS011;66927;48.812;9.118;2023-08-20T13:55:17;6.28;;;5.28;;
12826;SDS011;66927;48.812;9.118;2023-08-20T13:57:43;5.47;;;4.78;;
12826;SDS011;66927;48.812;9.118;2023-08-20T14:00:08;6.65;;;5.13;;
12826;SDS011;66927;48.812;9.118;2023-08-20T14:02:37;5.13;;;4.63;;
12826;SDS011;66927;48.812;9.118;2023-08-20T14:05:03;8.00;;;5.00;;
12826;SDS011;66927;48.812;9.118;2023-08-20T14:07:29;5.53;;;4.80;;
12826;SDS011;66927;48.812;9.118;2023-08-20T14:09:55;6.50;;;5.75;;
12826;SDS011;66927;48.812;9.118;2023-08-20T14:12:21;6.45;;;5.03;;
12826;SDS011;66927;48.812;9.118;2023-08-20T14:14:47;9.55;;;5.68;;
12826;SDS011;66927;48.812;9.118;2023-08-20T14:17:12;5.72;;;5.15;;
12826;SDS011;66927;48.812;9.118;2023-08-20T14:19:38;6.28;;;5.40;;
12826;SDS011;66927;48.812;9.118;2023-08-20T14:22:03;4.90;;;4.50;;
12826;SDS011;66927;48.812;9.118;2023-08-20T14:24:29;5.85;;;5.30;;
12826;SDS011;66927;48.812;9.118;2023-08-20T14:26:55;8.13;;;5.93;;
12826;SDS011;66927;48.812;9.118;2023-08-20T14:29:20;7.55;;;6.47;;
12826;SDS011;66927;48.812;9.118;2023-08-20T14:31:46;6.28;;;5.40;;
12826;SDS011;66927;48.812;9.118;2023-08-20T14:34:12;5.57;;;4.93;;
12826;SDS011;66927;48.812;9.118;2023-08-20T14:36:37;5.60;;;5.10;;
12826;SDS011;66927;48.812;9.118;2023-08-20T14:39:05;6.22;;;5.18;;
12826;SDS011;66927;48.812;9.118;2023-08-20T14:41:31;7.93;;;5.63;;
12826;SDS011;66927;48.812;9.118;2023-08-20T14:43:56;6.07;;;4.90;;
12826;SDS011;66927;48.812;9.118;2023-08-20T14:46:23;8.88;;;5.38;;
12826;SDS011;66927;48.812;9.118;2023-08-20T14:48:49;11.93;;;10.93;;
12826;SDS011;66927;48.812;9.118;2023-08-20T14:51:15;7.63;;;5.97;;
12826;SDS011;66927;48.812;9.118;2023-08-20T14:53:40;5.05;;;4.65;;
12826;SDS011;66927;48.812;9.118;2023-08-20T14:56:06;5.35;;;4.75;;
12826;SDS011;66927;48.812;9.118;2023-08-20T14:58:31;5.82;;;5.22;;
12826;SDS011;66927;48.812;9.118;2023-08-20T15:00:58;6.05;;;4.88;;
12826;SDS011;66927;48.812;9.118;2023-08-20T15:03:24;5.32;;;4.25;;